Ana Sayfa
METAR-TAF:

METAR-TAF

Havaalanları :

Türkmenabat, Türkmenistan

Enlem: 39-05-00N, Boylam: 063-36-48E, yükseklik: 192 m

Güncel hava durumu gözlemi

Rapor saat 08:00 UTC de 26 dakika önce yapıldı.
Rüzgar kuzeydan 12 kt
Sıcaklık 36°C
Nem 15%
Basınç 1008 hPa
Görüş mesafesi 10 km veya daha fazla
1500 m altında bulut yok ve kümülonimbus yok

METAR: UTAV 140800Z 36012KT CAVOK 36/05 Q1008 NOSIG

Saat: 13:26 (08:26 UTC)

Tahmin

Rapor saat 04:30 UTC de 3 saat ve 56 dakika önce yapıldı.
Ayın 14'si saat 06 UTC'den ayın 15'si saat 06 UTC'ye kadar geçerli Tahmin
Rüzgar kuzey/kuzeybatıdan 14 kt
Görüş mesafesi 10 km veya daha fazla
1500 m altında bulut yok ve kümülonimbus yok
Geçici
ayın 14'si saat 06 UTC'den ayın 14'si saat 13 UTC'ye kadar
Rüzgar kuzey/kuzeydoğudan 16 kt ve 26 kt'a kadar ani rüzgarlar
Görüş mesafesi: 3000 m
Sürüklenen toz

TAF: UTAV 140430Z 1406/1506 34014KT CAVOK 530009 TEMPO 1406/1413 02016G26KT 3000 DRDU

4.000'den fazla havaalanı için hava durumu gözlemleri ve tahminleri (METAR ve TAF raporları).

Kullanılabilir istasyonlar harita üzerinde sarı ve kırmızı noktalarla gösterilir.

İstasyonun adını görmek için fareyi noktanın üzerinde gezdirin.

Sonrasında hava gözlem ve tahminlerini görmek için tıklayın.

Haritayı değiştirmek için: yaklaştırmak için siyah artı işaretli yeşil düğmeye ve uzaklaştırmak için de eksi işaretli düğmeye hızla tıklayın; bitişik haritalar için yeşil okları kullanın.


METAR-TAF: